sensor_id;sensor_type;location;lat;lon;timestamp;P1;durP1;ratioP1;P2;durP2;ratioP2
12968;SDS011;6549;53.128;8.182;2022-10-13T00:00:45;5.20;;;3.78;;
12968;SDS011;6549;53.128;8.182;2022-10-13T00:03:46;5.90;;;3.63;;
12968;SDS011;6549;53.128;8.182;2022-10-13T00:06:47;6.35;;;4.30;;
12968;SDS011;6549;53.128;8.182;2022-10-13T00:09:47;7.45;;;4.55;;
12968;SDS011;6549;53.128;8.182;2022-10-13T00:12:48;8.13;;;4.88;;
12968;SDS011;6549;53.128;8.182;2022-10-13T00:15:48;6.80;;;4.40;;
12968;SDS011;6549;53.128;8.182;2022-10-13T00:18:49;7.15;;;4.40;;
12968;SDS011;6549;53.128;8.182;2022-10-13T00:21:49;7.03;;;3.95;;
12968;SDS011;6549;53.128;8.182;2022-10-13T00:24:50;8.55;;;4.40;;
12968;SDS011;6549;53.128;8.182;2022-10-13T00:27:51;7.20;;;4.28;;
12968;SDS011;6549;53.128;8.182;2022-10-13T00:30:52;7.47;;;4.75;;
12968;SDS011;6549;53.128;8.182;2022-10-13T00:33:52;6.93;;;4.43;;
12968;SDS011;6549;53.128;8.182;2022-10-13T00:36:53;7.03;;;4.55;;
12968;SDS011;6549;53.128;8.182;2022-10-13T00:39:53;7.18;;;4.03;;
12968;SDS011;6549;53.128;8.182;2022-10-13T00:42:54;8.13;;;4.45;;
12968;SDS011;6549;53.128;8.182;2022-10-13T00:45:54;7.82;;;4.97;;
12968;SDS011;6549;53.128;8.182;2022-10-13T00:48:55;9.23;;;4.40;;
12968;SDS011;6549;53.128;8.182;2022-10-13T00:51:58;8.05;;;4.95;;
12968;SDS011;6549;53.128;8.182;2022-10-13T00:54:58;7.63;;;4.63;;
12968;SDS011;6549;53.128;8.182;2022-10-13T00:58:02;9.05;;;4.70;;
12968;SDS011;6549;53.128;8.182;2022-10-13T01:01:05;6.75;;;4.50;;
12968;SDS011;6549;53.128;8.182;2022-10-13T01:04:06;9.13;;;5.55;;
12968;SDS011;6549;53.128;8.182;2022-10-13T01:07:06;8.70;;;5.45;;
12968;SDS011;6549;53.128;8.182;2022-10-13T01:10:07;9.80;;;5.30;;
12968;SDS011;6549;53.128;8.182;2022-10-13T01:13:11;8.85;;;5.68;;
12968;SDS011;6549;53.128;8.182;2022-10-13T01:33:00;9.82;;;5.88;;
12968;SDS011;6549;53.128;8.182;2022-10-13T01:46:30;8.82;;;5.22;;
12968;SDS011;6549;53.128;8.182;2022-10-13T01:49:34;8.77;;;5.35;;
12968;SDS011;6549;53.128;8.182;2022-10-13T01:52:36;9.57;;;5.57;;
12968;SDS011;6549;53.128;8.182;2022-10-13T01:55:47;9.05;;;5.10;;
12968;SDS011;6549;53.128;8.182;2022-10-13T01:58:55;8.93;;;5.22;;
12968;SDS011;6549;53.128;8.182;2022-10-13T02:02:03;7.75;;;5.20;;
12968;SDS011;6549;53.128;8.182;2022-10-13T02:08:54;9.32;;;5.60;;
12968;SDS011;6549;53.128;8.182;2022-10-13T02:12:04;9.05;;;5.60;;
12968;SDS011;6549;53.128;8.182;2022-10-13T02:15:08;9.18;;;5.50;;
12968;SDS011;6549;53.128;8.182;2022-10-13T02:18:13;11.70;;;7.20;;
12968;SDS011;6549;53.128;8.182;2022-10-13T02:21:16;10.70;;;6.45;;
12968;SDS011;6549;53.128;8.182;2022-10-13T02:24:17;10.80;;;6.57;;
12968;SDS011;6549;53.128;8.182;2022-10-13T02:27:18;12.65;;;7.35;;
12968;SDS011;6549;53.128;8.182;2022-10-13T02:30:20;13.15;;;7.32;;
12968;SDS011;6549;53.128;8.182;2022-10-13T02:33:22;15.90;;;7.80;;
12968;SDS011;6549;53.128;8.182;2022-10-13T02:36:22;14.93;;;7.53;;
12968;SDS011;6549;53.128;8.182;2022-10-13T02:39:23;16.25;;;8.70;;
12968;SDS011;6549;53.128;8.182;2022-10-13T02:42:23;13.43;;;8.52;;
12968;SDS011;6549;53.128;8.182;2022-10-13T02:45:23;14.52;;;8.15;;
12968;SDS011;6549;53.128;8.182;2022-10-13T02:48:24;17.13;;;9.75;;
12968;SDS011;6549;53.128;8.182;2022-10-13T02:51:24;11.73;;;7.30;;
12968;SDS011;6549;53.128;8.182;2022-10-13T02:54:25;19.15;;;10.40;;
12968;SDS011;6549;53.128;8.182;2022-10-13T02:57:25;14.10;;;8.13;;
12968;SDS011;6549;53.128;8.182;2022-10-13T03:00:26;17.10;;;9.90;;
12968;SDS011;6549;53.128;8.182;2022-10-13T03:03:26;17.90;;;10.02;;
12968;SDS011;6549;53.128;8.182;2022-10-13T03:06:26;15.68;;;9.20;;
12968;SDS011;6549;53.128;8.182;2022-10-13T03:09:27;15.63;;;8.85;;
12968;SDS011;6549;53.128;8.182;2022-10-13T03:12:27;15.95;;;8.63;;
12968;SDS011;6549;53.128;8.182;2022-10-13T03:15:28;11.52;;;8.05;;
12968;SDS011;6549;53.128;8.182;2022-10-13T03:18:28;17.67;;;10.10;;
12968;SDS011;6549;53.128;8.182;2022-10-13T03:21:29;13.90;;;9.70;;
12968;SDS011;6549;53.128;8.182;2022-10-13T03:24:29;12.50;;;8.68;;
12968;SDS011;6549;53.128;8.182;2022-10-13T03:27:30;15.73;;;8.63;;
12968;SDS011;6549;53.128;8.182;2022-10-13T03:30:30;15.02;;;9.48;;
12968;SDS011;6549;53.128;8.182;2022-10-13T03:33:30;14.50;;;8.15;;
12968;SDS011;6549;53.128;8.182;2022-10-13T03:36:31;12.35;;;8.48;;
12968;SDS011;6549;53.128;8.182;2022-10-13T03:39:31;16.30;;;9.05;;
12968;SDS011;6549;53.128;8.182;2022-10-13T03:42:33;14.65;;;8.55;;
12968;SDS011;6549;53.128;8.182;2022-10-13T03:45:34;12.57;;;8.38;;
12968;SDS011;6549;53.128;8.182;2022-10-13T03:48:35;12.98;;;7.60;;
12968;SDS011;6549;53.128;8.182;2022-10-13T03:51:35;19.60;;;10.77;;
12968;SDS011;6549;53.128;8.182;2022-10-13T03:54:36;17.95;;;10.23;;
12968;SDS011;6549;53.128;8.182;2022-10-13T03:57:36;14.88;;;9.38;;
12968;SDS011;6549;53.128;8.182;2022-10-13T04:00:36;15.52;;;9.43;;
12968;SDS011;6549;53.128;8.182;2022-10-13T04:03:37;20.58;;;10.48;;
12968;SDS011;6549;53.128;8.182;2022-10-13T04:06:37;16.90;;;9.65;;
12968;SDS011;6549;53.128;8.182;2022-10-13T04:09:38;18.58;;;10.85;;
12968;SDS011;6549;53.128;8.182;2022-10-13T04:12:39;19.55;;;11.98;;
12968;SDS011;6549;53.128;8.182;2022-10-13T04:15:39;18.75;;;10.00;;
12968;SDS011;6549;53.128;8.182;2022-10-13T04:18:40;18.10;;;10.38;;
12968;SDS011;6549;53.128;8.182;2022-10-13T04:21:41;17.25;;;9.52;;
12968;SDS011;6549;53.128;8.182;2022-10-13T04:24:41;15.25;;;9.25;;
12968;SDS011;6549;53.128;8.182;2022-10-13T04:27:41;15.70;;;10.30;;
12968;SDS011;6549;53.128;8.182;2022-10-13T04:30:42;17.20;;;9.40;;
12968;SDS011;6549;53.128;8.182;2022-10-13T04:33:42;14.63;;;8.60;;
12968;SDS011;6549;53.128;8.182;2022-10-13T04:36:44;13.20;;;8.13;;
12968;SDS011;6549;53.128;8.182;2022-10-13T04:39:44;17.60;;;10.45;;
12968;SDS011;6549;53.128;8.182;2022-10-13T04:42:44;15.93;;;10.15;;
12968;SDS011;6549;53.128;8.182;2022-10-13T04:45:45;19.20;;;12.85;;
12968;SDS011;6549;53.128;8.182;2022-10-13T04:48:45;25.33;;;13.35;;
12968;SDS011;6549;53.128;8.182;2022-10-13T04:51:45;18.23;;;11.43;;
12968;SDS011;6549;53.128;8.182;2022-10-13T04:54:46;16.58;;;11.20;;
12968;SDS011;6549;53.128;8.182;2022-10-13T04:57:46;21.38;;;11.43;;
12968;SDS011;6549;53.128;8.182;2022-10-13T05:00:46;17.48;;;11.65;;
12968;SDS011;6549;53.128;8.182;2022-10-13T05:03:54;25.98;;;13.35;;
12968;SDS011;6549;53.128;8.182;2022-10-13T05:06:57;20.10;;;12.30;;
12968;SDS011;6549;53.128;8.182;2022-10-13T05:09:57;19.88;;;12.98;;
12968;SDS011;6549;53.128;8.182;2022-10-13T05:12:57;16.17;;;10.55;;
12968;SDS011;6549;53.128;8.182;2022-10-13T05:15:58;17.70;;;10.90;;
12968;SDS011;6549;53.128;8.182;2022-10-13T05:18:58;28.38;;;15.23;;
12968;SDS011;6549;53.128;8.182;2022-10-13T05:21:58;21.65;;;12.07;;
12968;SDS011;6549;53.128;8.182;2022-10-13T05:24:59;23.15;;;14.10;;
12968;SDS011;6549;53.128;8.182;2022-10-13T05:27:59;21.27;;;12.82;;
12968;SDS011;6549;53.128;8.182;2022-10-13T05:31:16;21.42;;;12.20;;
12968;SDS011;6549;53.128;8.182;2022-10-13T05:34:20;18.48;;;12.30;;
12968;SDS011;6549;53.128;8.182;2022-10-13T05:37:21;23.10;;;12.52;;
12968;SDS011;6549;53.128;8.182;2022-10-13T05:40:21;18.60;;;11.20;;
12968;SDS011;6549;53.128;8.182;2022-10-13T05:43:22;17.10;;;10.98;;
12968;SDS011;6549;53.128;8.182;2022-10-13T05:46:23;19.48;;;12.43;;
12968;SDS011;6549;53.128;8.182;2022-10-13T05:49:23;18.90;;;11.18;;
12968;SDS011;6549;53.128;8.182;2022-10-13T05:52:24;17.58;;;10.98;;
12968;SDS011;6549;53.128;8.182;2022-10-13T05:55:26;16.50;;;10.17;;
12968;SDS011;6549;53.128;8.182;2022-10-13T05:58:26;15.60;;;9.32;;
12968;SDS011;6549;53.128;8.182;2022-10-13T06:01:27;15.32;;;9.18;;
12968;SDS011;6549;53.128;8.182;2022-10-13T06:04:33;22.65;;;13.88;;
12968;SDS011;6549;53.128;8.182;2022-10-13T06:07:38;20.45;;;13.43;;
12968;SDS011;6549;53.128;8.182;2022-10-13T06:10:38;20.02;;;12.13;;
12968;SDS011;6549;53.128;8.182;2022-10-13T06:13:40;15.60;;;10.55;;
12968;SDS011;6549;53.128;8.182;2022-10-13T06:16:40;17.73;;;11.52;;
12968;SDS011;6549;53.128;8.182;2022-10-13T06:19:41;23.95;;;14.20;;
12968;SDS011;6549;53.128;8.182;2022-10-13T06:22:41;26.45;;;14.90;;
12968;SDS011;6549;53.128;8.182;2022-10-13T06:25:45;27.92;;;15.25;;
12968;SDS011;6549;53.128;8.182;2022-10-13T06:28:46;23.63;;;13.63;;
12968;SDS011;6549;53.128;8.182;2022-10-13T06:31:47;24.92;;;14.88;;
12968;SDS011;6549;53.128;8.182;2022-10-13T06:34:47;26.13;;;15.98;;
12968;SDS011;6549;53.128;8.182;2022-10-13T06:37:48;32.22;;;18.63;;
12968;SDS011;6549;53.128;8.182;2022-10-13T06:40:49;27.50;;;16.75;;
12968;SDS011;6549;53.128;8.182;2022-10-13T06:43:49;30.35;;;17.92;;
12968;SDS011;6549;53.128;8.182;2022-10-13T06:46:49;30.33;;;18.15;;
12968;SDS011;6549;53.128;8.182;2022-10-13T06:49:50;26.27;;;16.50;;
12968;SDS011;6549;53.128;8.182;2022-10-13T06:52:50;26.38;;;15.63;;
12968;SDS011;6549;53.128;8.182;2022-10-13T06:55:51;25.98;;;15.25;;
12968;SDS011;6549;53.128;8.182;2022-10-13T06:58:55;24.63;;;15.05;;
12968;SDS011;6549;53.128;8.182;2022-10-13T07:01:55;26.67;;;16.10;;
12968;SDS011;6549;53.128;8.182;2022-10-13T07:04:56;27.80;;;15.85;;
12968;SDS011;6549;53.128;8.182;2022-10-13T07:07:56;29.77;;;19.02;;
12968;SDS011;6549;53.128;8.182;2022-10-13T07:10:57;27.90;;;16.63;;
12968;SDS011;6549;53.128;8.182;2022-10-13T07:13:57;26.50;;;16.40;;
12968;SDS011;6549;53.128;8.182;2022-10-13T07:16:58;24.95;;;14.90;;
12968;SDS011;6549;53.128;8.182;2022-10-13T07:19:59;24.30;;;15.00;;
12968;SDS011;6549;53.128;8.182;2022-10-13T07:23:01;30.15;;;18.60;;
12968;SDS011;6549;53.128;8.182;2022-10-13T07:26:05;26.60;;;16.35;;
12968;SDS011;6549;53.128;8.182;2022-10-13T07:29:10;32.00;;;17.95;;
12968;SDS011;6549;53.128;8.182;2022-10-13T07:32:10;28.02;;;18.02;;
12968;SDS011;6549;53.128;8.182;2022-10-13T07:35:11;30.65;;;18.17;;
12968;SDS011;6549;53.128;8.182;2022-10-13T07:38:11;23.60;;;15.45;;
12968;SDS011;6549;53.128;8.182;2022-10-13T07:41:12;28.40;;;17.27;;
12968;SDS011;6549;53.128;8.182;2022-10-13T07:44:13;26.77;;;16.38;;
12968;SDS011;6549;53.128;8.182;2022-10-13T07:47:13;24.50;;;14.88;;
12968;SDS011;6549;53.128;8.182;2022-10-13T07:50:14;31.95;;;18.77;;
12968;SDS011;6549;53.128;8.182;2022-10-13T07:53:14;30.15;;;19.23;;
12968;SDS011;6549;53.128;8.182;2022-10-13T07:56:15;28.95;;;17.58;;
12968;SDS011;6549;53.128;8.182;2022-10-13T07:59:15;31.25;;;18.38;;
12968;SDS011;6549;53.128;8.182;2022-10-13T08:02:16;29.75;;;17.25;;
12968;SDS011;6549;53.128;8.182;2022-10-13T08:05:16;29.42;;;17.23;;
12968;SDS011;6549;53.128;8.182;2022-10-13T08:08:17;31.95;;;18.73;;
12968;SDS011;6549;53.128;8.182;2022-10-13T08:11:17;29.25;;;18.23;;
12968;SDS011;6549;53.128;8.182;2022-10-13T08:14:17;24.75;;;17.20;;
12968;SDS011;6549;53.128;8.182;2022-10-13T08:17:18;27.38;;;16.70;;
12968;SDS011;6549;53.128;8.182;2022-10-13T08:20:18;29.83;;;17.27;;
12968;SDS011;6549;53.128;8.182;2022-10-13T08:23:19;26.02;;;16.58;;
12968;SDS011;6549;53.128;8.182;2022-10-13T08:26:23;25.60;;;17.10;;
12968;SDS011;6549;53.128;8.182;2022-10-13T08:29:26;30.10;;;18.27;;
12968;SDS011;6549;53.128;8.182;2022-10-13T08:32:26;30.80;;;18.73;;
12968;SDS011;6549;53.128;8.182;2022-10-13T08:35:26;24.67;;;17.17;;
12968;SDS011;6549;53.128;8.182;2022-10-13T08:38:27;26.92;;;17.90;;
12968;SDS011;6549;53.128;8.182;2022-10-13T08:41:29;26.05;;;17.00;;
12968;SDS011;6549;53.128;8.182;2022-10-13T08:44:34;26.52;;;18.65;;
12968;SDS011;6549;53.128;8.182;2022-10-13T08:47:40;34.10;;;18.17;;
12968;SDS011;6549;53.128;8.182;2022-10-13T08:50:45;28.13;;;18.80;;
12968;SDS011;6549;53.128;8.182;2022-10-13T08:53:48;27.63;;;18.05;;
12968;SDS011;6549;53.128;8.182;2022-10-13T08:56:49;27.30;;;16.77;;
12968;SDS011;6549;53.128;8.182;2022-10-13T08:59:50;28.92;;;17.52;;
12968;SDS011;6549;53.128;8.182;2022-10-13T09:02:51;31.65;;;17.65;;
12968;SDS011;6549;53.128;8.182;2022-10-13T09:05:55;32.08;;;19.88;;
12968;SDS011;6549;53.128;8.182;2022-10-13T09:09:03;29.48;;;17.30;;
12968;SDS011;6549;53.128;8.182;2022-10-13T09:12:05;27.45;;;17.33;;
12968;SDS011;6549;53.128;8.182;2022-10-13T09:15:07;30.05;;;17.35;;
12968;SDS011;6549;53.128;8.182;2022-10-13T09:18:11;29.75;;;17.90;;
12968;SDS011;6549;53.128;8.182;2022-10-13T09:21:20;25.80;;;17.45;;
12968;SDS011;6549;53.128;8.182;2022-10-13T09:24:23;26.95;;;17.67;;
12968;SDS011;6549;53.128;8.182;2022-10-13T09:33:29;23.73;;;15.30;;
12968;SDS011;6549;53.128;8.182;2022-10-13T09:36:34;28.52;;;17.70;;
12968;SDS011;6549;53.128;8.182;2022-10-13T09:42:37;30.10;;;18.17;;
12968;SDS011;6549;53.128;8.182;2022-10-13T09:45:41;25.65;;;15.48;;
12968;SDS011;6549;53.128;8.182;2022-10-13T09:48:43;26.33;;;15.70;;
12968;SDS011;6549;53.128;8.182;2022-10-13T09:51:48;25.40;;;16.92;;
12968;SDS011;6549;53.128;8.182;2022-10-13T09:54:50;28.42;;;17.30;;
12968;SDS011;6549;53.128;8.182;2022-10-13T09:57:52;26.58;;;17.90;;
12968;SDS011;6549;53.128;8.182;2022-10-13T10:00:55;28.90;;;17.08;;
12968;SDS011;6549;53.128;8.182;2022-10-13T10:03:56;27.50;;;17.23;;
12968;SDS011;6549;53.128;8.182;2022-10-13T10:06:57;26.58;;;17.42;;
12968;SDS011;6549;53.128;8.182;2022-10-13T10:10:12;26.63;;;15.75;;
12968;SDS011;6549;53.128;8.182;2022-10-13T10:13:23;27.70;;;16.45;;
12968;SDS011;6549;53.128;8.182;2022-10-13T10:16:28;29.38;;;18.50;;
12968;SDS011;6549;53.128;8.182;2022-10-13T10:19:42;26.67;;;17.38;;
12968;SDS011;6549;53.128;8.182;2022-10-13T10:22:54;23.90;;;16.13;;
12968;SDS011;6549;53.128;8.182;2022-10-13T10:26:10;28.05;;;18.08;;
12968;SDS011;6549;53.128;8.182;2022-10-13T10:29:22;22.13;;;16.30;;
12968;SDS011;6549;53.128;8.182;2022-10-13T10:32:27;21.73;;;15.88;;
12968;SDS011;6549;53.128;8.182;2022-10-13T10:39:07;23.15;;;14.77;;
12968;SDS011;6549;53.128;8.182;2022-10-13T10:45:48;24.17;;;15.48;;
12968;SDS011;6549;53.128;8.182;2022-10-13T10:48:50;24.67;;;15.77;;
12968;SDS011;6549;53.128;8.182;2022-10-13T10:51:53;22.85;;;14.98;;
12968;SDS011;6549;53.128;8.182;2022-10-13T11:01:29;21.58;;;13.85;;
12968;SDS011;6549;53.128;8.182;2022-10-13T11:10:46;24.70;;;15.23;;
12968;SDS011;6549;53.128;8.182;2022-10-13T11:13:53;24.90;;;14.88;;
12968;SDS011;6549;53.128;8.182;2022-10-13T11:17:09;24.70;;;16.05;;
12968;SDS011;6549;53.128;8.182;2022-10-13T11:29:49;22.90;;;15.35;;
12968;SDS011;6549;53.128;8.182;2022-10-13T11:32:45;22.35;;;13.75;;
12968;SDS011;6549;53.128;8.182;2022-10-13T11:35:54;22.73;;;13.93;;
12968;SDS011;6549;53.128;8.182;2022-10-13T11:46:06;22.00;;;16.75;;
12968;SDS011;6549;53.128;8.182;2022-10-13T11:56:03;19.42;;;14.35;;
12968;SDS011;6549;53.128;8.182;2022-10-13T11:59:04;21.73;;;14.30;;
12968;SDS011;6549;53.128;8.182;2022-10-13T12:08:24;22.90;;;14.77;;
12968;SDS011;6549;53.128;8.182;2022-10-13T12:14:39;23.30;;;14.20;;
12968;SDS011;6549;53.128;8.182;2022-10-13T12:17:42;22.42;;;14.20;;
12968;SDS011;6549;53.128;8.182;2022-10-13T12:20:43;17.80;;;13.48;;
12968;SDS011;6549;53.128;8.182;2022-10-13T12:23:51;19.45;;;13.80;;
12968;SDS011;6549;53.128;8.182;2022-10-13T12:27:10;24.13;;;16.42;;
12968;SDS011;6549;53.128;8.182;2022-10-13T12:30:26;20.00;;;14.38;;
12968;SDS011;6549;53.128;8.182;2022-10-13T12:33:30;18.27;;;13.70;;
12968;SDS011;6549;53.128;8.182;2022-10-13T12:36:34;25.00;;;14.65;;
12968;SDS011;6549;53.128;8.182;2022-10-13T12:39:34;21.45;;;15.00;;
12968;SDS011;6549;53.128;8.182;2022-10-13T12:42:36;18.17;;;14.52;;
12968;SDS011;6549;53.128;8.182;2022-10-13T12:45:37;21.23;;;14.63;;
12968;SDS011;6549;53.128;8.182;2022-10-13T12:48:38;22.43;;;15.53;;
12968;SDS011;6549;53.128;8.182;2022-10-13T12:51:39;23.77;;;14.80;;
12968;SDS011;6549;53.128;8.182;2022-10-13T12:54:47;22.80;;;15.50;;
12968;SDS011;6549;53.128;8.182;2022-10-13T12:57:50;20.48;;;14.38;;
12968;SDS011;6549;53.128;8.182;2022-10-13T13:00:54;16.33;;;12.85;;
12968;SDS011;6549;53.128;8.182;2022-10-13T13:03:58;21.35;;;14.75;;
12968;SDS011;6549;53.128;8.182;2022-10-13T13:07:02;23.40;;;15.40;;
12968;SDS011;6549;53.128;8.182;2022-10-13T13:13:13;25.20;;;15.75;;
12968;SDS011;6549;53.128;8.182;2022-10-13T13:16:18;22.10;;;15.25;;
12968;SDS011;6549;53.128;8.182;2022-10-13T13:19:20;24.80;;;14.63;;
12968;SDS011;6549;53.128;8.182;2022-10-13T13:22:21;25.15;;;15.38;;
12968;SDS011;6549;53.128;8.182;2022-10-13T13:25:22;18.33;;;13.98;;
12968;SDS011;6549;53.128;8.182;2022-10-13T13:28:27;22.05;;;14.60;;
12968;SDS011;6549;53.128;8.182;2022-10-13T13:31:28;18.98;;;12.52;;
12968;SDS011;6549;53.128;8.182;2022-10-13T13:34:29;19.88;;;13.85;;
12968;SDS011;6549;53.128;8.182;2022-10-13T13:37:30;24.30;;;13.90;;
12968;SDS011;6549;53.128;8.182;2022-10-13T13:40:34;17.13;;;12.98;;
12968;SDS011;6549;53.128;8.182;2022-10-13T13:43:35;18.25;;;12.60;;
12968;SDS011;6549;53.128;8.182;2022-10-13T13:46:35;17.63;;;12.35;;
12968;SDS011;6549;53.128;8.182;2022-10-13T13:49:35;12.60;;;9.57;;
12968;SDS011;6549;53.128;8.182;2022-10-13T13:52:36;16.77;;;10.60;;
12968;SDS011;6549;53.128;8.182;2022-10-13T13:55:37;14.40;;;10.52;;
12968;SDS011;6549;53.128;8.182;2022-10-13T13:58:38;15.20;;;9.13;;
12968;SDS011;6549;53.128;8.182;2022-10-13T14:01:38;18.83;;;10.85;;
12968;SDS011;6549;53.128;8.182;2022-10-13T14:04:38;13.95;;;9.93;;
12968;SDS011;6549;53.128;8.182;2022-10-13T14:07:39;15.40;;;11.13;;
12968;SDS011;6549;53.128;8.182;2022-10-13T14:10:40;15.50;;;11.00;;
12968;SDS011;6549;53.128;8.182;2022-10-13T14:13:40;18.23;;;12.60;;
12968;SDS011;6549;53.128;8.182;2022-10-13T14:16:40;21.05;;;13.90;;
12968;SDS011;6549;53.128;8.182;2022-10-13T14:19:41;21.00;;;13.77;;
12968;SDS011;6549;53.128;8.182;2022-10-13T14:22:41;19.23;;;13.63;;
12968;SDS011;6549;53.128;8.182;2022-10-13T14:25:41;17.95;;;11.93;;
12968;SDS011;6549;53.128;8.182;2022-10-13T14:28:42;24.63;;;15.00;;
12968;SDS011;6549;53.128;8.182;2022-10-13T14:31:44;18.38;;;14.05;;
12968;SDS011;6549;53.128;8.182;2022-10-13T14:34:44;23.27;;;14.57;;
12968;SDS011;6549;53.128;8.182;2022-10-13T14:37:44;16.98;;;11.43;;
12968;SDS011;6549;53.128;8.182;2022-10-13T14:40:45;23.80;;;14.80;;
12968;SDS011;6549;53.128;8.182;2022-10-13T14:43:45;17.05;;;13.27;;
12968;SDS011;6549;53.128;8.182;2022-10-13T14:46:46;23.98;;;16.35;;
12968;SDS011;6549;53.128;8.182;2022-10-13T14:49:46;20.05;;;14.25;;
12968;SDS011;6549;53.128;8.182;2022-10-13T14:52:46;17.77;;;12.60;;
12968;SDS011;6549;53.128;8.182;2022-10-13T14:55:47;24.88;;;15.02;;
12968;SDS011;6549;53.128;8.182;2022-10-13T14:58:47;26.13;;;16.80;;
12968;SDS011;6549;53.128;8.182;2022-10-13T15:01:49;25.47;;;15.37;;
12968;SDS011;6549;53.128;8.182;2022-10-13T15:04:49;27.30;;;18.15;;
12968;SDS011;6549;53.128;8.182;2022-10-13T15:07:50;26.40;;;17.80;;
12968;SDS011;6549;53.128;8.182;2022-10-13T15:11:00;27.25;;;17.63;;
12968;SDS011;6549;53.128;8.182;2022-10-13T15:14:03;22.48;;;15.45;;
12968;SDS011;6549;53.128;8.182;2022-10-13T15:17:04;22.08;;;15.65;;
12968;SDS011;6549;53.128;8.182;2022-10-13T15:20:04;24.00;;;17.23;;
12968;SDS011;6549;53.128;8.182;2022-10-13T15:23:05;17.95;;;14.57;;
12968;SDS011;6549;53.128;8.182;2022-10-13T15:26:05;22.77;;;15.93;;
12968;SDS011;6549;53.128;8.182;2022-10-13T15:29:06;19.73;;;15.27;;
12968;SDS011;6549;53.128;8.182;2022-10-13T15:32:08;19.92;;;14.02;;
12968;SDS011;6549;53.128;8.182;2022-10-13T15:35:10;19.95;;;14.77;;
12968;SDS011;6549;53.128;8.182;2022-10-13T15:38:10;25.85;;;16.27;;
12968;SDS011;6549;53.128;8.182;2022-10-13T15:41:11;18.17;;;13.82;;
12968;SDS011;6549;53.128;8.182;2022-10-13T15:44:12;22.00;;;16.90;;
12968;SDS011;6549;53.128;8.182;2022-10-13T15:47:12;21.23;;;13.93;;
12968;SDS011;6549;53.128;8.182;2022-10-13T15:50:12;20.00;;;15.20;;
12968;SDS011;6549;53.128;8.182;2022-10-13T15:53:14;16.27;;;12.93;;
12968;SDS011;6549;53.128;8.182;2022-10-13T15:56:14;18.13;;;14.02;;
12968;SDS011;6549;53.128;8.182;2022-10-13T15:59:15;23.00;;;16.67;;
12968;SDS011;6549;53.128;8.182;2022-10-13T16:02:15;23.67;;;18.02;;
12968;SDS011;6549;53.128;8.182;2022-10-13T16:05:16;17.77;;;13.98;;
12968;SDS011;6549;53.128;8.182;2022-10-13T16:08:17;17.27;;;13.35;;
12968;SDS011;6549;53.128;8.182;2022-10-13T16:11:19;22.42;;;14.90;;
12968;SDS011;6549;53.128;8.182;2022-10-13T16:14:21;24.55;;;17.90;;
12968;SDS011;6549;53.128;8.182;2022-10-13T16:17:21;23.52;;;17.60;;
12968;SDS011;6549;53.128;8.182;2022-10-13T16:20:21;24.50;;;19.15;;
12968;SDS011;6549;53.128;8.182;2022-10-13T16:23:22;21.40;;;17.50;;
12968;SDS011;6549;53.128;8.182;2022-10-13T16:26:22;19.40;;;15.70;;
12968;SDS011;6549;53.128;8.182;2022-10-13T16:29:23;18.15;;;14.35;;
12968;SDS011;6549;53.128;8.182;2022-10-13T16:32:23;16.88;;;12.95;;
12968;SDS011;6549;53.128;8.182;2022-10-13T16:35:23;24.67;;;17.83;;
12968;SDS011;6549;53.128;8.182;2022-10-13T16:38:24;19.52;;;15.05;;
12968;SDS011;6549;53.128;8.182;2022-10-13T16:41:25;20.65;;;15.13;;
12968;SDS011;6549;53.128;8.182;2022-10-13T16:44:25;21.30;;;16.00;;
12968;SDS011;6549;53.128;8.182;2022-10-13T16:47:26;19.05;;;15.70;;
12968;SDS011;6549;53.128;8.182;2022-10-13T16:50:26;19.15;;;15.32;;
12968;SDS011;6549;53.128;8.182;2022-10-13T16:53:26;19.58;;;16.08;;
12968;SDS011;6549;53.128;8.182;2022-10-13T16:56:27;25.00;;;18.65;;
12968;SDS011;6549;53.128;8.182;2022-10-13T16:59:28;23.60;;;17.75;;
12968;SDS011;6549;53.128;8.182;2022-10-13T17:02:28;27.65;;;19.80;;
12968;SDS011;6549;53.128;8.182;2022-10-13T17:05:28;20.40;;;16.52;;
12968;SDS011;6549;53.128;8.182;2022-10-13T17:08:29;21.05;;;16.48;;
12968;SDS011;6549;53.128;8.182;2022-10-13T17:11:30;23.73;;;18.00;;
12968;SDS011;6549;53.128;8.182;2022-10-13T17:14:32;27.42;;;21.00;;
12968;SDS011;6549;53.128;8.182;2022-10-13T17:17:32;22.50;;;17.27;;
12968;SDS011;6549;53.128;8.182;2022-10-13T17:20:33;27.52;;;20.98;;
12968;SDS011;6549;53.128;8.182;2022-10-13T17:23:34;26.25;;;18.27;;
12968;SDS011;6549;53.128;8.182;2022-10-13T17:26:34;20.20;;;16.60;;
12968;SDS011;6549;53.128;8.182;2022-10-13T17:29:35;23.17;;;16.77;;
12968;SDS011;6549;53.128;8.182;2022-10-13T17:32:35;23.88;;;18.52;;
12968;SDS011;6549;53.128;8.182;2022-10-13T17:35:37;28.73;;;21.20;;
12968;SDS011;6549;53.128;8.182;2022-10-13T17:38:38;21.52;;;17.55;;
12968;SDS011;6549;53.128;8.182;2022-10-13T17:41:39;34.00;;;26.05;;
12968;SDS011;6549;53.128;8.182;2022-10-13T17:44:39;31.95;;;24.80;;
12968;SDS011;6549;53.128;8.182;2022-10-13T17:47:48;36.87;;;25.80;;
12968;SDS011;6549;53.128;8.182;2022-10-13T17:50:49;27.77;;;22.00;;
12968;SDS011;6549;53.128;8.182;2022-10-13T17:53:50;29.75;;;21.98;;
12968;SDS011;6549;53.128;8.182;2022-10-13T17:56:54;26.13;;;18.57;;
12968;SDS011;6549;53.128;8.182;2022-10-13T17:59:56;24.90;;;18.45;;
12968;SDS011;6549;53.128;8.182;2022-10-13T18:02:56;32.03;;;21.58;;
12968;SDS011;6549;53.128;8.182;2022-10-13T18:05:56;31.27;;;20.88;;
12968;SDS011;6549;53.128;8.182;2022-10-13T18:08:56;31.63;;;19.38;;
12968;SDS011;6549;53.128;8.182;2022-10-13T18:11:57;31.38;;;20.35;;
12968;SDS011;6549;53.128;8.182;2022-10-13T18:14:57;26.77;;;19.52;;
12968;SDS011;6549;53.128;8.182;2022-10-13T18:17:57;25.98;;;18.08;;
12968;SDS011;6549;53.128;8.182;2022-10-13T18:21:01;28.08;;;18.88;;
12968;SDS011;6549;53.128;8.182;2022-10-13T18:24:03;24.65;;;17.52;;
12968;SDS011;6549;53.128;8.182;2022-10-13T18:27:04;28.02;;;18.88;;
12968;SDS011;6549;53.128;8.182;2022-10-13T18:30:04;25.70;;;18.77;;
12968;SDS011;6549;53.128;8.182;2022-10-13T18:33:05;23.58;;;16.42;;
12968;SDS011;6549;53.128;8.182;2022-10-13T18:36:13;24.67;;;16.90;;
12968;SDS011;6549;53.128;8.182;2022-10-13T18:42:20;24.23;;;17.27;;
12968;SDS011;6549;53.128;8.182;2022-10-13T18:45:20;26.02;;;19.83;;
12968;SDS011;6549;53.128;8.182;2022-10-13T18:48:21;24.35;;;15.93;;
12968;SDS011;6549;53.128;8.182;2022-10-13T18:51:21;33.00;;;19.58;;
12968;SDS011;6549;53.128;8.182;2022-10-13T18:54:21;31.00;;;19.63;;
12968;SDS011;6549;53.128;8.182;2022-10-13T18:57:22;29.38;;;19.13;;
12968;SDS011;6549;53.128;8.182;2022-10-13T19:00:22;29.02;;;17.95;;
12968;SDS011;6549;53.128;8.182;2022-10-13T19:03:22;23.98;;;15.93;;
12968;SDS011;6549;53.128;8.182;2022-10-13T19:06:23;22.50;;;15.80;;
12968;SDS011;6549;53.128;8.182;2022-10-13T19:09:25;19.85;;;14.02;;
12968;SDS011;6549;53.128;8.182;2022-10-13T19:12:26;21.08;;;15.32;;
12968;SDS011;6549;53.128;8.182;2022-10-13T19:15:26;20.45;;;14.88;;
12968;SDS011;6549;53.128;8.182;2022-10-13T19:18:26;23.55;;;15.73;;
12968;SDS011;6549;53.128;8.182;2022-10-13T19:21:27;23.08;;;14.95;;
12968;SDS011;6549;53.128;8.182;2022-10-13T19:24:27;22.85;;;16.05;;
12968;SDS011;6549;53.128;8.182;2022-10-13T19:27:27;27.13;;;18.35;;
12968;SDS011;6549;53.128;8.182;2022-10-13T19:30:28;21.95;;;15.52;;
12968;SDS011;6549;53.128;8.182;2022-10-13T19:33:28;23.48;;;16.23;;
12968;SDS011;6549;53.128;8.182;2022-10-13T19:36:30;21.17;;;14.95;;
12968;SDS011;6549;53.128;8.182;2022-10-13T19:39:32;20.27;;;14.10;;
12968;SDS011;6549;53.128;8.182;2022-10-13T19:42:33;24.02;;;16.85;;